createdAt,value
2022-09-14T00:01:27.357Z,2.83
2022-09-14T00:04:00.531Z,3.08
2022-09-14T00:06:28.892Z,3.15
2022-09-14T00:08:58.211Z,3.60
2022-09-14T00:11:26.948Z,3.10
2022-09-14T00:13:54.818Z,3.40
2022-09-14T00:16:30.478Z,3.60
2022-09-14T00:19:00.770Z,3.42
2022-09-14T00:21:28.584Z,3.35
2022-09-14T00:23:55.410Z,3.67
2022-09-14T00:26:23.538Z,3.72
2022-09-14T00:28:52.900Z,3.92
2022-09-14T00:31:21.491Z,5.53
2022-09-14T00:33:49.603Z,4.93
2022-09-14T00:36:22.195Z,5.22
2022-09-14T00:38:49.546Z,6.13
2022-09-14T00:41:22.715Z,6.97
2022-09-14T00:44:01.887Z,7.05
2022-09-14T00:46:36.082Z,7.03
2022-09-14T00:49:06.752Z,7.22
2022-09-14T00:51:35.409Z,6.35
2022-09-14T00:54:03.968Z,6.32
2022-09-14T00:56:31.502Z,5.85
2022-09-14T00:59:01.460Z,5.72
2022-09-14T01:01:29.540Z,6.22
2022-09-14T01:03:56.441Z,6.05
2022-09-14T01:07:01.125Z,6.13
2022-09-14T01:09:30.837Z,5.57
2022-09-14T01:12:11.739Z,5.60
2022-09-14T01:14:42.531Z,5.57
2022-09-14T01:17:28.427Z,5.75
2022-09-14T01:23:20.489Z,4.55
2022-09-14T01:26:03.900Z,3.60
2022-09-14T01:28:49.659Z,2.92
2022-09-14T01:31:28.215Z,3.58
2022-09-14T01:34:07.430Z,2.90
2022-09-14T01:36:37.663Z,3.72
2022-09-14T01:39:06.114Z,3.42
2022-09-14T01:41:34.432Z,3.40
2022-09-14T01:44:09.248Z,3.38
2022-09-14T01:46:47.974Z,3.63
2022-09-14T01:49:39.569Z,3.80
2022-09-14T01:52:21.632Z,4.00
2022-09-14T01:55:07.533Z,3.60
2022-09-14T02:00:10.401Z,3.78
2022-09-14T02:02:41.690Z,4.43
2022-09-14T02:05:18.615Z,4.10
2022-09-14T02:07:45.831Z,4.75
2022-09-14T02:10:15.048Z,4.70
2022-09-14T02:12:42.996Z,4.53
2022-09-14T02:15:12.667Z,4.50
2022-09-14T02:17:40.093Z,5.00
2022-09-14T02:20:11.272Z,5.50
2022-09-14T02:22:38.535Z,5.95
2022-09-14T02:25:05.849Z,6.32
2022-09-14T02:27:32.697Z,6.85
2022-09-14T02:29:59.564Z,7.68
2022-09-14T02:32:48.439Z,6.35
2022-09-14T02:35:39.726Z,6.30
2022-09-14T02:38:32.647Z,6.63
2022-09-14T02:41:26.715Z,5.90
2022-09-14T02:43:59.328Z,5.70
2022-09-14T02:46:44.540Z,5.78
2022-09-14T02:49:21.165Z,6.65
2022-09-14T02:51:55.757Z,5.53
2022-09-14T02:54:34.817Z,6.43
2022-09-14T02:57:03.149Z,6.97
2022-09-14T02:59:30.321Z,7.43
2022-09-14T03:02:00.530Z,8.70
2022-09-14T03:04:28.138Z,9.10
2022-09-14T03:06:55.034Z,8.38
2022-09-14T03:09:21.938Z,8.18
2022-09-14T03:11:48.927Z,7.30
2022-09-14T03:14:15.872Z,4.90
2022-09-14T03:16:42.873Z,5.50
2022-09-14T03:19:12.209Z,4.65
2022-09-14T03:21:39.971Z,4.43
2022-09-14T03:24:07.675Z,5.05
2022-09-14T03:27:15.419Z,5.20
2022-09-14T03:29:42.410Z,4.65
2022-09-14T03:32:10.983Z,4.63
2022-09-14T03:34:37.910Z,3.80
2022-09-14T03:37:04.924Z,4.30
2022-09-14T03:39:31.752Z,4.10
2022-09-14T03:41:58.557Z,4.70
2022-09-14T03:44:25.955Z,4.63
2022-09-14T03:46:52.735Z,4.68
2022-09-14T03:49:19.595Z,5.03
2022-09-14T03:51:46.487Z,4.43
2022-09-14T03:54:13.363Z,4.80
2022-09-14T03:56:40.572Z,4.93
2022-09-14T03:59:10.118Z,5.55
2022-09-14T04:01:38.304Z,5.18
2022-09-14T04:04:05.227Z,5.38
2022-09-14T04:06:32.785Z,5.90
2022-09-14T04:09:00.026Z,6.50
2022-09-14T04:11:28.184Z,6.97
2022-09-14T04:13:55.127Z,6.90
2022-09-14T04:16:22.576Z,7.13
2022-09-14T04:18:49.568Z,7.05
2022-09-14T04:21:18.760Z,7.63
2022-09-14T04:26:34.371Z,6.45
2022-09-14T04:29:01.189Z,6.85
2022-09-14T04:31:28.413Z,6.32
2022-09-14T04:33:57.155Z,5.97
2022-09-14T04:36:28.507Z,6.22
2022-09-14T04:38:58.241Z,7.00
2022-09-14T04:41:25.661Z,7.18
2022-09-14T04:43:53.885Z,6.55
2022-09-14T04:46:23.887Z,7.13
2022-09-14T04:48:50.829Z,6.65
2022-09-14T04:51:24.118Z,6.63
2022-09-14T04:53:53.067Z,7.10
2022-09-14T04:56:22.416Z,7.43
2022-09-14T04:58:52.345Z,6.60
2022-09-14T05:01:25.751Z,6.82
2022-09-14T05:03:53.985Z,7.13
2022-09-14T05:06:23.526Z,6.72
2022-09-14T05:08:51.577Z,6.60
2022-09-14T05:11:24.116Z,6.53
2022-09-14T05:13:51.195Z,6.68
2022-09-14T05:16:23.789Z,5.75
2022-09-14T05:18:53.370Z,5.97
2022-09-14T05:21:22.170Z,6.47
2022-09-14T05:23:57.309Z,6.22
2022-09-14T05:26:28.308Z,6.05
2022-09-14T05:28:57.579Z,5.82
2022-09-14T05:31:26.379Z,6.85
2022-09-14T05:33:54.160Z,6.93
2022-09-14T05:36:21.840Z,6.65
2022-09-14T05:38:48.991Z,6.28
2022-09-14T05:41:16.811Z,6.57
2022-09-14T05:43:44.619Z,6.80
2022-09-14T05:46:22.252Z,7.40
2022-09-14T05:48:51.643Z,8.45
2022-09-14T05:51:23.867Z,8.23
2022-09-14T05:53:57.029Z,8.35
2022-09-14T05:56:26.537Z,8.15
2022-09-14T05:58:53.715Z,8.10
2022-09-14T06:01:23.708Z,8.43
2022-09-14T06:03:53.876Z,7.32
2022-09-14T06:06:21.690Z,7.03
2022-09-14T06:08:52.430Z,6.78
2022-09-14T06:11:22.807Z,5.85
2022-09-14T06:13:50.276Z,5.72
2022-09-14T06:16:20.079Z,4.57
2022-09-14T06:18:47.890Z,4.22
2022-09-14T06:21:16.792Z,4.40
2022-09-14T06:23:44.829Z,4.07
2022-09-14T06:26:12.262Z,4.00
2022-09-14T06:28:39.904Z,4.30
2022-09-14T06:31:07.868Z,3.05
2022-09-14T06:33:35.405Z,3.58
2022-09-14T06:36:09.700Z,3.28
2022-09-14T06:38:36.539Z,3.45
2022-09-14T06:41:06.981Z,2.80
2022-09-14T06:43:36.576Z,2.72
2022-09-14T06:46:13.409Z,3.20
2022-09-14T06:48:44.660Z,2.95
2022-09-14T06:51:21.442Z,2.97
2022-09-14T06:53:49.471Z,3.00
2022-09-14T06:56:16.986Z,2.75
2022-09-14T06:58:44.327Z,2.22
2022-09-14T07:01:14.888Z,2.25
2022-09-14T07:03:43.967Z,1.90
2022-09-14T07:06:14.081Z,2.30
2022-09-14T07:08:41.032Z,2.03
2022-09-14T07:11:09.833Z,2.30
2022-09-14T07:13:37.174Z,2.40
2022-09-14T07:16:04.965Z,1.98
2022-09-14T07:18:32.878Z,1.80
2022-09-14T07:21:10.276Z,1.80
2022-09-14T07:23:39.114Z,1.70
2022-09-14T07:26:41.943Z,2.05
2022-09-14T07:29:12.313Z,2.00
2022-09-14T07:31:48.658Z,1.67
2022-09-14T07:34:16.304Z,2.08
2022-09-14T07:36:44.052Z,1.80
2022-09-14T07:39:13.414Z,1.90
2022-09-14T07:41:40.418Z,2.10
2022-09-14T07:44:08.566Z,2.17
2022-09-14T07:46:40.848Z,1.67
2022-09-14T07:49:08.647Z,2.38
2022-09-14T07:51:36.850Z,2.28
2022-09-14T07:54:06.061Z,1.92
2022-09-14T07:56:34.943Z,2.20
2022-09-14T07:59:57.132Z,1.92
2022-09-14T08:01:50.368Z,1.80
2022-09-14T08:04:17.275Z,2.10
2022-09-14T08:06:44.183Z,2.13
2022-09-14T08:09:11.033Z,2.20
2022-09-14T08:11:38.598Z,1.58
2022-09-14T08:14:10.118Z,1.95
2022-09-14T08:16:39.073Z,1.95
2022-09-14T08:19:12.169Z,2.08
2022-09-14T08:21:44.151Z,2.05
2022-09-14T08:24:15.599Z,2.03
2022-09-14T08:26:42.637Z,1.60
2022-09-14T08:29:09.533Z,2.20
2022-09-14T08:31:38.924Z,2.03
2022-09-14T08:34:07.029Z,2.05
2022-09-14T08:36:36.691Z,2.45
2022-09-14T08:39:04.878Z,1.67
2022-09-14T08:41:38.322Z,2.17
2022-09-14T08:44:18.120Z,2.50
2022-09-14T08:46:56.966Z,2.30
2022-09-14T08:49:47.464Z,2.00
2022-09-14T08:52:30.206Z,2.13
2022-09-14T08:54:59.747Z,2.58
2022-09-14T08:57:40.994Z,2.10
2022-09-14T09:00:13.385Z,2.47
2022-09-14T09:03:02.705Z,2.03
2022-09-14T09:05:53.941Z,1.85
2022-09-14T09:08:46.299Z,1.90
2022-09-14T09:11:18.975Z,2.10
2022-09-14T09:13:47.978Z,2.25
2022-09-14T09:16:20.144Z,2.47
2022-09-14T09:18:53.365Z,1.80
2022-09-14T09:21:20.177Z,2.03
2022-09-14T09:23:47.285Z,2.00
2022-09-14T09:26:30.590Z,1.67
2022-09-14T09:29:00.496Z,1.70
2022-09-14T09:31:34.975Z,1.88
2022-09-14T09:34:31.432Z,1.90
2022-09-14T09:37:16.263Z,1.58
2022-09-14T09:39:44.160Z,1.73
2022-09-14T09:42:21.581Z,1.73
2022-09-14T09:45:06.434Z,1.88
2022-09-14T09:47:41.825Z,1.90
2022-09-14T09:50:14.814Z,1.50
2022-09-14T09:52:57.805Z,1.55
2022-09-14T09:55:31.403Z,1.70
2022-09-14T09:58:18.575Z,1.67
2022-09-14T10:00:57.021Z,1.85
2022-09-14T10:03:51.521Z,1.90
2022-09-14T10:06:18.759Z,2.42
2022-09-14T10:08:47.515Z,1.92
2022-09-14T10:11:32.199Z,1.80
2022-09-14T10:13:59.486Z,2.55
2022-09-14T10:16:38.915Z,2.00
2022-09-14T10:19:24.548Z,2.45
2022-09-14T10:22:26.778Z,2.08
2022-09-14T10:25:03.677Z,2.42
2022-09-14T10:27:53.051Z,2.20
2022-09-14T10:30:22.640Z,1.90
2022-09-14T10:33:00.347Z,2.00
2022-09-14T10:35:59.898Z,2.10
2022-09-14T10:38:32.222Z,1.98
2022-09-14T10:41:31.614Z,2.08
2022-09-14T10:44:26.417Z,1.80
2022-09-14T10:47:04.855Z,2.00
2022-09-14T10:49:41.051Z,2.15
2022-09-14T10:52:31.866Z,1.98
2022-09-14T10:55:19.964Z,2.20
2022-09-14T10:58:24.801Z,2.45
2022-09-14T11:01:27.851Z,1.88
2022-09-14T11:04:00.588Z,1.80
2022-09-14T11:06:30.534Z,1.60
2022-09-14T11:09:22.451Z,1.95
2022-09-14T11:12:29.873Z,1.90
2022-09-14T11:14:56.737Z,2.30
2022-09-14T11:17:35.731Z,1.95
2022-09-14T11:20:26.135Z,1.60
2022-09-14T11:23:17.847Z,1.85
2022-09-14T11:26:10.668Z,1.77
2022-09-14T11:28:43.572Z,2.33
2022-09-14T11:31:28.760Z,2.50
2022-09-14T11:34:11.510Z,2.10
2022-09-14T11:36:44.594Z,1.90
2022-09-14T11:39:36.923Z,2.20
2022-09-14T11:42:11.768Z,2.13
2022-09-14T11:44:41.065Z,2.20
2022-09-14T11:47:20.211Z,1.80
2022-09-14T11:50:01.097Z,1.85
2022-09-14T11:52:30.855Z,2.28
2022-09-14T11:54:59.773Z,1.80
2022-09-14T11:57:30.370Z,1.83
2022-09-14T12:00:04.066Z,2.40
2022-09-14T12:02:37.937Z,2.30
2022-09-14T12:05:04.936Z,2.38
2022-09-14T12:07:46.895Z,2.40
2022-09-14T12:10:20.084Z,2.20
2022-09-14T12:12:53.043Z,2.00
2022-09-14T12:15:34.152Z,2.22
2022-09-14T12:18:06.915Z,1.98
2022-09-14T12:20:44.041Z,2.30
2022-09-14T12:23:29.531Z,1.85
2022-09-14T12:26:05.267Z,1.75
2022-09-14T12:28:35.444Z,2.13
2022-09-14T12:31:05.144Z,2.17
2022-09-14T12:34:16.175Z,2.13
2022-09-14T12:36:43.175Z,2.08
2022-09-14T12:39:31.149Z,1.80
2022-09-14T12:42:01.233Z,1.73
2022-09-14T12:44:41.600Z,2.10
2022-09-14T12:47:38.501Z,2.47
2022-09-14T12:50:18.469Z,2.85
2022-09-14T12:53:04.466Z,1.48
2022-09-14T12:58:37.799Z,1.33
2022-09-14T13:01:18.925Z,1.63
2022-09-14T13:03:55.005Z,1.65
2022-09-14T13:06:23.439Z,1.63
2022-09-14T13:08:57.511Z,2.35
2022-09-14T13:11:30.216Z,1.80
2022-09-14T13:13:57.840Z,2.08
2022-09-14T13:16:43.245Z,2.03
2022-09-14T13:19:20.808Z,2.00
2022-09-14T13:21:49.831Z,2.22
2022-09-14T13:24:22.993Z,2.05
2022-09-14T13:26:50.471Z,1.50
2022-09-14T13:29:17.658Z,1.85
2022-09-14T13:31:45.423Z,1.85
2022-09-14T13:34:30.707Z,2.15
2022-09-14T13:36:57.916Z,1.95
2022-09-14T13:39:29.458Z,1.73
2022-09-14T13:41:57.012Z,1.90
2022-09-14T13:44:28.236Z,1.75
2022-09-14T13:46:57.542Z,2.00
2022-09-14T13:49:24.666Z,1.52
2022-09-14T13:51:51.500Z,1.60
2022-09-14T13:54:24.527Z,1.90
2022-09-14T13:57:13.398Z,1.77
2022-09-14T14:00:12.426Z,1.35
2022-09-14T14:02:49.135Z,1.85
2022-09-14T14:05:26.656Z,1.17
2022-09-14T14:07:56.207Z,1.65
2022-09-14T14:10:46.255Z,1.90
2022-09-14T14:13:13.135Z,1.70
2022-09-14T14:15:42.455Z,1.70
2022-09-14T14:18:40.513Z,1.92
2022-09-14T14:21:21.414Z,1.90
2022-09-14T14:24:12.255Z,1.77
2022-09-14T14:26:46.917Z,1.77
2022-09-14T14:29:16.626Z,1.92
2022-09-14T14:31:44.471Z,1.95
2022-09-14T14:34:44.934Z,1.80
2022-09-14T14:37:11.965Z,1.77
2022-09-14T14:39:38.987Z,1.48
2022-09-14T14:42:07.324Z,1.60
2022-09-14T14:44:34.708Z,1.33
2022-09-14T14:47:01.575Z,1.80
2022-09-14T14:49:29.167Z,1.65
2022-09-14T14:51:56.073Z,1.63
2022-09-14T14:54:23.016Z,1.45
2022-09-14T14:56:51.334Z,1.20
2022-09-14T14:59:21.143Z,1.67
2022-09-14T15:01:49.363Z,1.52
2022-09-14T15:04:16.214Z,1.73
2022-09-14T15:06:43.099Z,1.70
2022-09-14T15:09:19.761Z,2.00
2022-09-14T15:11:47.230Z,2.00
2022-09-14T15:14:16.287Z,1.85
2022-09-14T15:16:43.985Z,1.80
2022-09-14T15:19:11.179Z,1.70
2022-09-14T15:21:39.435Z,2.17
2022-09-14T15:24:07.060Z,1.50
2022-09-14T15:26:34.831Z,1.60
2022-09-14T15:29:02.183Z,1.83
2022-09-14T15:31:29.402Z,1.52
2022-09-14T15:33:56.313Z,1.60
2022-09-14T15:36:52.825Z,1.88
2022-09-14T15:39:25.304Z,1.50
2022-09-14T15:41:52.529Z,1.42
2022-09-14T15:44:19.439Z,1.60
2022-09-14T15:46:47.023Z,1.70
2022-09-14T15:49:24.739Z,1.50
2022-09-14T15:51:53.907Z,1.63
2022-09-14T15:54:25.944Z,1.60
2022-09-14T15:56:55.750Z,1.80
2022-09-14T15:59:23.071Z,1.83
2022-09-14T16:01:50.454Z,1.83
2022-09-14T16:04:17.684Z,1.70
2022-09-14T16:06:45.040Z,2.70
2022-09-14T16:09:14.113Z,25.60
2022-09-14T16:11:41.936Z,10.50
2022-09-14T16:14:10.663Z,4.65
2022-09-14T16:16:38.538Z,1.55
2022-09-14T16:19:13.765Z,1.50
2022-09-14T16:21:42.275Z,1.80
2022-09-14T16:24:13.359Z,1.83
2022-09-14T16:26:40.777Z,1.63
2022-09-14T16:29:09.591Z,1.40
2022-09-14T16:31:38.466Z,1.80
2022-09-14T16:34:27.525Z,1.75
2022-09-14T16:36:55.528Z,1.80
2022-09-14T16:39:24.956Z,1.63
2022-09-14T16:41:54.027Z,2.00
2022-09-14T16:44:24.300Z,1.73
2022-09-14T16:46:52.457Z,1.40
2022-09-14T16:49:24.791Z,1.63
2022-09-14T16:51:54.454Z,1.60
2022-09-14T16:54:22.787Z,1.90
2022-09-14T16:56:50.630Z,1.80
2022-09-14T16:59:17.880Z,1.63
2022-09-14T17:01:49.728Z,1.90
2022-09-14T17:06:51.852Z,1.70
2022-09-14T17:09:27.888Z,2.05
2022-09-14T17:11:56.672Z,1.77
2022-09-14T17:14:29.930Z,2.40
2022-09-14T17:16:58.585Z,2.38
2022-09-14T17:19:25.900Z,2.03
2022-09-14T17:21:53.620Z,1.92
2022-09-14T17:24:21.443Z,2.05
2022-09-14T17:26:48.849Z,1.92
2022-09-14T17:29:16.378Z,1.98
2022-09-14T17:31:45.556Z,2.20
2022-09-14T17:34:15.939Z,2.22
2022-09-14T17:36:43.791Z,2.92
2022-09-14T17:39:12.469Z,2.35
2022-09-14T17:41:41.167Z,2.22
2022-09-14T17:44:11.361Z,2.10
2022-09-14T17:46:46.013Z,2.05
2022-09-14T17:49:16.376Z,1.60
2022-09-14T17:51:45.355Z,2.03
2022-09-14T17:54:13.232Z,1.90
2022-09-14T17:56:40.786Z,1.92
2022-09-14T17:59:11.935Z,2.40
2022-09-14T18:01:39.079Z,2.30
2022-09-14T18:04:10.039Z,1.77
2022-09-14T18:06:39.970Z,2.42
2022-09-14T18:09:11.070Z,2.30
2022-09-14T18:11:38.503Z,2.20
2022-09-14T18:14:06.228Z,2.08
2022-09-14T18:16:34.198Z,1.90
2022-09-14T18:19:02.019Z,2.38
2022-09-14T18:21:29.426Z,2.45
2022-09-14T18:23:57.079Z,5.15
2022-09-14T18:26:25.486Z,3.58
2022-09-14T18:28:56.435Z,2.50
2022-09-14T18:31:23.922Z,2.97
2022-09-14T18:33:53.535Z,3.00
2022-09-14T18:36:21.974Z,3.53
2022-09-14T18:38:49.754Z,3.45
2022-09-14T18:41:17.631Z,3.65
2022-09-14T18:43:50.640Z,3.20
2022-09-14T18:46:19.053Z,3.15
2022-09-14T18:48:46.785Z,4.03
2022-09-14T18:51:14.602Z,3.65
2022-09-14T18:53:42.554Z,3.40
2022-09-14T18:56:12.326Z,3.55
2022-09-14T18:58:42.215Z,3.20
2022-09-14T19:01:10.632Z,3.53
2022-09-14T19:03:39.112Z,3.15
2022-09-14T19:06:12.462Z,3.25
2022-09-14T19:08:39.940Z,3.58
2022-09-14T19:11:13.465Z,3.58
2022-09-14T19:13:40.934Z,3.80
2022-09-14T19:16:16.766Z,3.53
2022-09-14T19:18:45.102Z,3.92
2022-09-14T19:21:23.344Z,3.53
2022-09-14T19:23:57.633Z,3.25
2022-09-14T19:26:24.563Z,3.83
2022-09-14T19:28:51.863Z,3.30
2022-09-14T19:31:21.196Z,3.97
2022-09-14T19:33:48.155Z,3.97
2022-09-14T19:36:19.841Z,3.80
2022-09-14T19:38:47.897Z,4.60
2022-09-14T19:41:16.014Z,4.78
2022-09-14T19:43:43.796Z,5.72
2022-09-14T19:46:17.248Z,5.82
2022-09-14T19:48:45.131Z,5.43
2022-09-14T19:51:15.309Z,6.50
2022-09-14T19:53:42.953Z,5.35
2022-09-14T19:56:14.112Z,4.88
2022-09-14T19:58:46.663Z,5.13
2022-09-14T20:01:15.449Z,5.35
2022-09-14T20:03:44.202Z,5.90
2022-09-14T20:06:21.203Z,5.00
2022-09-14T20:08:50.087Z,5.40
2022-09-14T20:11:20.069Z,5.32
2022-09-14T20:13:48.517Z,5.28
2022-09-14T20:16:18.009Z,5.60
2022-09-14T20:18:46.628Z,5.20
2022-09-14T20:21:22.241Z,6.07
2022-09-14T20:24:14.670Z,7.20
2022-09-14T20:26:43.330Z,7.28
2022-09-14T20:29:10.217Z,7.15
2022-09-14T20:31:37.190Z,7.18
2022-09-14T20:34:04.560Z,7.75
2022-09-14T20:36:32.403Z,7.60
2022-09-14T20:38:59.810Z,8.27
2022-09-14T20:41:33.251Z,8.82
2022-09-14T20:44:00.376Z,8.63
2022-09-14T20:46:34.937Z,9.00
2022-09-14T20:49:04.172Z,10.52
2022-09-14T20:51:31.681Z,11.95
2022-09-14T20:53:58.678Z,9.98
2022-09-14T20:56:27.755Z,9.80
2022-09-14T20:58:56.832Z,11.18
2022-09-14T21:01:26.461Z,10.48
2022-09-14T21:03:53.997Z,10.80
2022-09-14T21:06:23.354Z,10.73
2022-09-14T21:08:51.031Z,12.30
2022-09-14T21:11:22.185Z,12.00
2022-09-14T21:13:50.362Z,12.30
2022-09-14T21:16:23.394Z,12.52
2022-09-14T21:19:02.844Z,13.02
2022-09-14T21:21:30.450Z,13.68
2022-09-14T21:23:58.634Z,13.85
2022-09-14T21:26:26.951Z,13.57
2022-09-14T21:28:58.453Z,13.60
2022-09-14T21:31:28.438Z,13.57
2022-09-14T21:33:58.845Z,15.25
2022-09-14T21:36:37.716Z,15.90
2022-09-14T21:39:14.170Z,15.98
2022-09-14T21:41:42.594Z,15.65
2022-09-14T21:44:09.530Z,15.25
2022-09-14T21:46:36.976Z,14.45
2022-09-14T21:49:04.152Z,14.85
2022-09-14T21:51:33.871Z,17.05
2022-09-14T21:54:12.353Z,17.88
2022-09-14T21:56:41.538Z,17.65
2022-09-14T21:59:11.655Z,17.80
2022-09-14T22:01:38.899Z,19.15
2022-09-14T22:04:09.444Z,18.42
2022-09-14T22:06:36.429Z,19.08
2022-09-14T22:09:04.099Z,18.40
2022-09-14T22:11:33.751Z,21.63
2022-09-14T22:14:03.726Z,20.42
2022-09-14T22:16:34.103Z,20.90
2022-09-14T22:19:04.215Z,21.13
2022-09-14T22:21:33.215Z,20.85
2022-09-14T22:24:01.717Z,19.95
2022-09-14T22:26:31.448Z,18.75
2022-09-14T22:28:59.288Z,20.73
2022-09-14T22:31:27.578Z,18.55
2022-09-14T22:33:56.239Z,20.23
2022-09-14T22:36:23.884Z,20.48
2022-09-14T22:38:50.789Z,19.60
2022-09-14T22:41:22.273Z,21.77
2022-09-14T22:43:49.623Z,23.48
2022-09-14T22:46:17.529Z,23.23
2022-09-14T22:48:45.444Z,23.08
2022-09-14T22:51:20.429Z,21.52
2022-09-14T22:53:47.457Z,21.83
2022-09-14T22:56:25.140Z,22.05
2022-09-14T22:58:52.154Z,20.35
2022-09-14T23:01:26.249Z,21.13
2022-09-14T23:04:11.475Z,21.63
2022-09-14T23:06:44.604Z,21.03
2022-09-14T23:09:14.696Z,20.80
2022-09-14T23:11:42.333Z,19.83
2022-09-14T23:14:09.210Z,20.77
2022-09-14T23:16:36.230Z,19.65
2022-09-14T23:19:06.682Z,19.27
2022-09-14T23:21:34.459Z,18.77
2022-09-14T23:24:04.026Z,10.48
2022-09-14T23:26:31.417Z,4.68
2022-09-14T23:29:04.798Z,4.10
2022-09-14T23:31:32.638Z,5.10
2022-09-14T23:34:02.629Z,5.35
2022-09-14T23:36:29.882Z,4.55
2022-09-14T23:38:56.763Z,4.00
2022-09-14T23:41:25.572Z,4.13
2022-09-14T23:43:53.116Z,4.00
2022-09-14T23:46:21.209Z,3.75
2022-09-14T23:48:48.188Z,3.97
2022-09-14T23:51:15.686Z,4.30
2022-09-14T23:53:43.152Z,4.47
2022-09-14T23:56:10.811Z,4.78
2022-09-14T23:58:38.417Z,4.90
